createdAt,value
2022-12-18T00:01:18.017Z,102100.38
2022-12-18T00:03:20.098Z,102099.69
2022-12-18T00:05:22.145Z,102103.69
2022-12-18T00:07:24.144Z,102099.19
2022-12-18T00:09:26.129Z,102098.72
2022-12-18T00:11:41.005Z,102096.38
2022-12-18T00:13:43.893Z,102092.84
2022-12-18T00:15:45.981Z,102090.19
2022-12-18T00:17:48.045Z,102081.59
2022-12-18T00:19:50.147Z,102077.59
2022-12-18T00:21:52.091Z,102072.31
2022-12-18T00:23:54.161Z,102071.94
2022-12-18T00:25:56.479Z,102070.53
2022-12-18T00:27:58.399Z,102069.22
2022-12-18T00:30:00.302Z,102073.19
2022-12-18T00:32:02.353Z,102065.25
2022-12-18T00:34:04.664Z,102069.41
2022-12-18T00:36:10.950Z,102065.88
2022-12-18T00:38:12.871Z,102065.47
2022-12-18T00:40:14.831Z,102071.63
2022-12-18T00:42:19.791Z,102063.91
2022-12-18T00:44:21.761Z,102059.22
2022-12-18T00:46:23.664Z,102055.19
2022-12-18T00:48:25.638Z,102062.66
2022-12-18T00:50:27.964Z,102058.44
2022-12-18T00:52:29.865Z,102061.88
2022-12-18T00:54:31.885Z,102062.13
2022-12-18T00:56:33.856Z,102062.66
2022-12-18T00:58:36.861Z,102058.91
2022-12-18T01:00:39.174Z,102064.88
2022-12-18T01:02:42.185Z,102054.63
2022-12-18T01:04:44.234Z,102064.13
2022-12-18T01:06:46.680Z,102056.94
2022-12-18T01:08:48.595Z,102063.22
2022-12-18T01:10:50.632Z,102055.38
2022-12-18T01:12:52.615Z,102052.50
2022-12-18T01:14:54.546Z,102055.38
2022-12-18T01:16:56.507Z,102051.41
2022-12-18T01:18:58.569Z,102043.56
2022-12-18T01:21:00.456Z,102048.06
2022-12-18T01:23:02.332Z,102041.34
2022-12-18T01:25:05.680Z,102034.28
2022-12-18T01:27:07.919Z,102037.13
2022-12-18T01:29:09.928Z,102028.53
2022-12-18T01:31:14.812Z,102028.31
2022-12-18T01:33:16.859Z,102025.66
2022-12-18T01:35:19.008Z,102017.00
2022-12-18T01:37:20.992Z,102016.81
2022-12-18T01:39:22.925Z,102016.81
2022-12-18T01:41:27.178Z,102007.97
2022-12-18T01:43:41.087Z,102009.75
2022-12-18T01:45:43.467Z,101993.16
2022-12-18T01:47:52.640Z,101987.50
2022-12-18T01:49:56.248Z,101990.28
2022-12-18T01:51:58.378Z,101985.63
2022-12-18T01:54:01.155Z,101984.66
2022-12-18T01:56:03.274Z,101987.41
2022-12-18T01:58:05.864Z,101993.25
2022-12-18T02:00:14.785Z,101989.63
2022-12-18T02:02:18.913Z,101995.47
2022-12-18T02:04:23.760Z,101997.81
2022-12-18T02:06:35.545Z,102000.44
2022-12-18T02:08:41.955Z,102002.63
2022-12-18T02:10:49.387Z,102004.75
2022-12-18T02:12:55.897Z,102007.28
2022-12-18T02:15:01.527Z,102007.19
2022-12-18T02:17:06.897Z,102013.78
2022-12-18T02:19:21.102Z,102019.00
2022-12-18T02:21:33.106Z,102020.97
2022-12-18T02:23:38.866Z,102023.63
2022-12-18T02:25:47.225Z,102021.09
2022-12-18T02:27:52.231Z,102026.84
2022-12-18T02:29:58.884Z,102029.16
2022-12-18T02:32:01.886Z,102020.75
2022-12-18T02:34:07.177Z,102017.88
2022-12-18T02:36:10.716Z,102019.41
2022-12-18T02:38:14.410Z,102017.66
2022-12-18T02:40:18.384Z,102026.25
2022-12-18T02:42:21.020Z,102039.53
2022-12-18T02:44:22.994Z,102039.84
2022-12-18T02:46:30.385Z,102043.16
2022-12-18T02:48:35.005Z,102044.16
2022-12-18T02:50:41.676Z,102041.25
2022-12-18T02:52:52.577Z,102052.63
2022-12-18T02:55:00.721Z,102051.06
2022-12-18T02:57:15.112Z,102054.50
2022-12-18T02:59:25.040Z,102044.16
2022-12-18T03:01:33.325Z,102040.63
2022-12-18T03:03:42.365Z,102037.00
2022-12-18T03:05:51.473Z,102038.09
2022-12-18T03:07:59.675Z,102029.81
2022-12-18T03:10:02.487Z,102030.69
2022-12-18T03:12:14.495Z,102020.13
2022-12-18T03:14:18.664Z,102020.56
2022-12-18T03:16:25.933Z,102007.09
2022-12-18T03:18:37.228Z,102000.66
2022-12-18T03:20:44.062Z,101995.16
2022-12-18T03:22:51.100Z,101999.00
2022-12-18T03:24:55.207Z,101990.63
2022-12-18T03:27:03.045Z,101991.59
2022-12-18T03:29:10.193Z,102004.88
2022-12-18T03:31:15.249Z,101994.50
2022-12-18T03:33:26.495Z,101982.09
2022-12-18T03:35:32.605Z,101984.53
2022-12-18T03:37:34.946Z,101984.88
2022-12-18T03:39:37.798Z,101981.91
2022-12-18T03:41:46.208Z,101975.63
2022-12-18T03:43:52.672Z,101972.59
2022-12-18T03:46:04.126Z,101981.13
2022-12-18T03:48:12.375Z,101992.94
2022-12-18T03:50:20.593Z,101990.19
2022-12-18T03:52:29.505Z,101993.81
2022-12-18T03:54:34.673Z,101988.53
2022-12-18T03:56:45.503Z,101976.81
2022-12-18T03:58:48.410Z,101969.41
2022-12-18T04:00:52.780Z,101962.88
2022-12-18T04:02:57.020Z,101961.31
2022-12-18T04:05:02.797Z,101968.19
2022-12-18T04:07:05.743Z,101959.13
2022-12-18T04:09:08.046Z,101958.66
2022-12-18T04:11:10.354Z,101968.19
2022-12-18T04:13:12.279Z,101968.41
2022-12-18T04:15:14.721Z,101966.84
2022-12-18T04:17:16.636Z,101967.72
2022-12-18T04:19:18.849Z,101969.28
2022-12-18T04:21:21.554Z,101969.59
2022-12-18T04:23:23.604Z,101966.16
2022-12-18T04:25:25.873Z,101955.03
2022-12-18T04:27:27.767Z,101955.91
2022-12-18T04:29:29.745Z,101970.03
2022-12-18T04:31:32.281Z,101954.44
2022-12-18T04:33:34.268Z,101956.09
2022-12-18T04:35:36.186Z,101952.91
2022-12-18T04:37:38.074Z,101945.84
2022-12-18T04:39:40.228Z,101949.91
2022-12-18T04:41:42.368Z,101953.56
2022-12-18T04:43:44.447Z,101949.34
2022-12-18T04:45:46.352Z,101947.94
2022-12-18T04:47:48.265Z,101944.91
2022-12-18T04:49:50.159Z,101941.31
2022-12-18T04:51:52.870Z,101938.41
2022-12-18T04:53:55.166Z,101939.59
2022-12-18T04:56:08.864Z,101937.31
2022-12-18T04:58:10.801Z,101929.59
2022-12-18T05:00:13.844Z,101927.94
2022-12-18T05:02:15.877Z,101919.56
2022-12-18T05:04:17.894Z,101908.41
2022-12-18T05:06:19.995Z,101903.41
2022-12-18T05:08:21.911Z,101903.94
2022-12-18T05:10:23.859Z,101891.28
2022-12-18T05:12:25.796Z,101884.31
2022-12-18T05:14:28.712Z,101893.50
2022-12-18T05:16:30.776Z,101889.09
2022-12-18T05:18:32.991Z,101889.72
2022-12-18T05:20:34.960Z,101877.25
2022-12-18T05:22:36.866Z,101864.22
2022-12-18T05:24:38.784Z,101867.88
2022-12-18T05:26:40.744Z,101861.94
2022-12-18T05:28:43.766Z,101863.00
2022-12-18T05:30:50.936Z,101863.97
2022-12-18T05:32:52.853Z,101862.44
2022-12-18T05:34:55.645Z,101862.16
2022-12-18T05:36:57.628Z,101860.03
2022-12-18T05:38:59.530Z,101857.16
2022-12-18T05:41:01.541Z,101841.28
2022-12-18T05:43:03.514Z,101835.53
2022-12-18T05:45:06.762Z,101838.72
2022-12-18T05:47:08.629Z,101838.06
2022-12-18T05:49:10.508Z,101830.34
2022-12-18T05:51:15.653Z,101836.75
2022-12-18T05:53:19.407Z,101843.50
2022-12-18T05:55:21.247Z,101847.34
2022-12-18T05:57:23.133Z,101845.47
2022-12-18T05:59:25.188Z,101830.81
2022-12-18T06:01:27.899Z,101831.78
2022-12-18T06:03:33.889Z,101835.00
2022-12-18T06:05:38.468Z,101831.47
2022-12-18T06:07:40.379Z,101828.16
2022-12-18T06:09:42.517Z,101825.41
2022-12-18T06:11:44.459Z,101811.84
2022-12-18T06:13:47.509Z,101805.22
2022-12-18T06:15:49.627Z,101795.94
2022-12-18T06:17:51.629Z,101811.84
2022-12-18T06:19:53.500Z,101812.94
2022-12-18T06:21:55.590Z,101804.63
2022-12-18T06:23:57.940Z,101794.84
2022-12-18T06:26:00.244Z,101788.72
2022-12-18T06:28:02.233Z,101778.25
2022-12-18T06:30:04.863Z,101770.72
2022-12-18T06:32:06.796Z,101767.09
2022-12-18T06:34:08.739Z,101761.03
2022-12-18T06:36:13.577Z,101758.03
2022-12-18T06:38:15.484Z,101749.16
2022-12-18T06:40:17.618Z,101744.75
2022-12-18T06:42:19.642Z,101745.75
2022-12-18T06:44:21.613Z,101739.84
2022-12-18T06:46:23.518Z,101729.03
2022-12-18T06:48:25.385Z,101730.66
2022-12-18T06:50:27.663Z,101736.25
2022-12-18T06:52:29.684Z,101737.34
2022-12-18T06:54:31.611Z,101745.53
2022-12-18T06:56:33.564Z,101752.16
2022-12-18T06:58:35.452Z,101753.72
2022-12-18T07:00:37.469Z,101756.25
2022-12-18T07:02:39.511Z,101745.13
2022-12-18T07:04:41.509Z,101751.50
2022-12-18T07:06:43.472Z,101742.44
2022-12-18T07:08:46.492Z,101745.22
2022-12-18T07:10:54.433Z,101731.50
2022-12-18T07:12:58.168Z,101735.38
2022-12-18T07:15:00.089Z,101726.50
2022-12-18T07:17:02.308Z,101721.66
2022-12-18T07:19:04.681Z,101718.38
2022-12-18T07:21:08.105Z,101716.16
2022-12-18T07:23:09.948Z,101715.47
2022-12-18T07:25:11.879Z,101722.31
2022-12-18T07:27:13.783Z,101717.91
2022-12-18T07:29:15.711Z,101724.06
2022-12-18T07:31:21.596Z,101722.00
2022-12-18T07:33:23.889Z,101709.69
2022-12-18T07:35:25.849Z,101706.63
2022-12-18T07:37:27.884Z,101709.09
2022-12-18T07:39:29.800Z,101705.31
2022-12-18T07:41:32.697Z,101710.59
2022-12-18T07:43:35.530Z,101702.88
2022-12-18T07:45:37.500Z,101701.09
2022-12-18T07:47:39.501Z,101694.91
2022-12-18T07:49:41.483Z,101691.28
2022-12-18T07:51:43.386Z,101694.41
2022-12-18T07:53:45.503Z,101680.00
2022-12-18T07:56:25.033Z,101674.22
2022-12-18T07:58:10.009Z,101669.78
2022-12-18T08:00:13.440Z,101669.59
2022-12-18T08:02:15.976Z,101662.31
2022-12-18T08:04:18.152Z,101665.78
2022-12-18T08:06:23.848Z,101662.44
2022-12-18T08:08:26.574Z,101666.06
2022-12-18T08:10:28.616Z,101669.53
2022-12-18T08:12:30.550Z,101675.66
2022-12-18T08:14:32.446Z,101676.81
2022-12-18T08:16:34.442Z,101670.69
2022-12-18T08:18:37.743Z,101676.34
2022-12-18T08:20:39.651Z,101685.66
2022-12-18T08:22:42.892Z,101697.13
2022-12-18T08:24:44.777Z,101692.00
2022-12-18T08:27:01.040Z,101690.44
2022-12-18T08:29:09.894Z,101676.34
2022-12-18T08:31:12.074Z,101683.84
2022-12-18T08:33:14.027Z,101681.41
2022-12-18T08:35:18.735Z,101684.78
2022-12-18T08:37:20.811Z,101687.13
2022-12-18T08:39:22.764Z,101693.19
2022-12-18T08:41:24.858Z,101685.75
2022-12-18T08:43:30.413Z,101695.03
2022-12-18T08:45:32.349Z,101689.06
2022-12-18T08:47:34.279Z,101677.06
2022-12-18T08:49:36.806Z,101669.75
2022-12-18T08:51:39.931Z,101671.91
2022-12-18T08:53:42.475Z,101682.66
2022-12-18T08:55:49.974Z,101681.91
2022-12-18T08:57:52.397Z,101681.56
2022-12-18T08:59:54.413Z,101677.16
2022-12-18T09:01:56.637Z,101677.63
2022-12-18T09:03:58.740Z,101678.94
2022-12-18T09:06:00.944Z,101684.53
2022-12-18T09:08:02.994Z,101678.38
2022-12-18T09:10:06.286Z,101680.34
2022-12-18T09:12:08.230Z,101678.84
2022-12-18T09:14:11.409Z,101684.25
2022-12-18T09:16:13.459Z,101679.63
2022-12-18T09:18:17.194Z,101684.94
2022-12-18T09:20:19.107Z,101684.25
2022-12-18T09:22:20.987Z,101683.19
2022-12-18T09:24:22.941Z,101674.09
2022-12-18T09:26:26.272Z,101673.06
2022-12-18T09:28:28.460Z,101661.63
2022-12-18T09:30:30.491Z,101675.44
2022-12-18T09:32:32.484Z,101672.97
2022-12-18T09:34:34.429Z,101682.78
2022-12-18T09:36:36.527Z,101688.28
2022-12-18T09:38:38.892Z,101684.06
2022-12-18T09:40:49.354Z,101696.88
2022-12-18T09:42:58.724Z,101694.44
2022-12-18T09:45:01.316Z,101707.34
2022-12-18T09:47:07.517Z,101697.69
2022-12-18T09:49:14.758Z,101693.94
2022-12-18T09:51:25.830Z,101682.22
2022-12-18T09:53:31.876Z,101683.47
2022-12-18T09:55:38.853Z,101684.75
2022-12-18T09:57:46.616Z,101688.78
2022-12-18T09:59:56.211Z,101687.50
2022-12-18T10:01:58.599Z,101689.66
2022-12-18T10:04:02.320Z,101698.84
2022-12-18T10:06:10.486Z,101696.50
2022-12-18T10:08:18.628Z,101694.53
2022-12-18T10:10:31.129Z,101698.28
2022-12-18T10:12:43.607Z,101694.56
2022-12-18T10:14:51.808Z,101695.13
2022-12-18T10:17:03.417Z,101692.66
2022-12-18T10:19:15.475Z,101681.94
2022-12-18T10:21:23.025Z,101686.41
2022-12-18T10:23:32.214Z,101682.72
2022-12-18T10:25:40.431Z,101673.09
2022-12-18T10:27:42.592Z,101669.97
2022-12-18T10:29:46.702Z,101672.41
2022-12-18T10:31:48.658Z,101674.44
2022-12-18T10:33:50.763Z,101682.59
2022-12-18T10:35:53.827Z,101673.47
2022-12-18T10:38:01.675Z,101663.69
2022-12-18T10:40:10.117Z,101653.97
2022-12-18T10:42:19.327Z,101653.22
2022-12-18T10:44:23.399Z,101635.97
2022-12-18T10:46:25.502Z,101626.47
2022-12-18T10:48:28.344Z,101635.78
2022-12-18T10:53:00.028Z,101622.44
2022-12-18T10:55:05.194Z,101613.00
2022-12-18T10:57:13.431Z,101603.03
2022-12-18T10:59:18.452Z,101593.09
2022-12-18T11:01:21.956Z,101593.56
2022-12-18T11:03:30.427Z,101584.75
2022-12-18T11:05:35.132Z,101578.59
2022-12-18T11:07:43.254Z,101576.31
2022-12-18T11:10:01.717Z,101566.84
2022-12-18T11:12:09.980Z,101556.47
2022-12-18T11:14:22.296Z,101552.88
2022-12-18T11:16:25.143Z,101558.47
2022-12-18T11:18:29.828Z,101561.56
2022-12-18T11:20:33.687Z,101567.44
2022-12-18T11:22:37.555Z,101567.38
2022-12-18T11:24:41.071Z,101563.00
2022-12-18T11:26:44.493Z,101550.00
2022-12-18T11:28:52.854Z,101544.28
2022-12-18T11:31:01.141Z,101533.75
2022-12-18T11:33:08.286Z,101530.31
2022-12-18T11:35:13.756Z,101526.13
2022-12-18T11:37:20.536Z,101521.19
2022-12-18T11:39:35.455Z,101518.56
2022-12-18T11:41:49.668Z,101510.84
2022-12-18T11:43:56.983Z,101521.13
2022-12-18T11:46:07.046Z,101513.88
2022-12-18T11:48:18.004Z,101511.81
2022-12-18T11:50:25.092Z,101519.25
2022-12-18T11:52:33.220Z,101507.31
2022-12-18T11:54:38.165Z,101504.56
2022-12-18T11:56:49.361Z,101503.53
2022-12-18T11:58:58.081Z,101495.91
2022-12-18T12:01:20.794Z,101488.94
2022-12-18T12:03:32.573Z,101486.81
2022-12-18T12:05:44.294Z,101487.31
2022-12-18T12:07:46.934Z,101488.75
2022-12-18T12:09:55.129Z,101480.56
2022-12-18T12:12:01.576Z,101477.66
2022-12-18T12:14:08.049Z,101472.50
2022-12-18T12:16:14.571Z,101466.25
2022-12-18T12:18:21.857Z,101457.34
2022-12-18T12:20:43.408Z,101435.38
2022-12-18T12:22:49.896Z,101432.34
2022-12-18T12:24:53.606Z,101422.56
2022-12-18T12:27:01.829Z,101423.13
2022-12-18T12:29:19.415Z,101404.41
2022-12-18T12:31:24.970Z,101404.59
2022-12-18T12:33:33.433Z,101394.22
2022-12-18T12:35:41.995Z,101404.88
2022-12-18T12:37:50.114Z,101399.59
2022-12-18T12:39:54.885Z,101388.97
2022-12-18T12:42:00.944Z,101401.78
2022-12-18T12:44:07.644Z,101394.78
2022-12-18T12:46:13.242Z,101405.41
2022-12-18T12:48:22.077Z,101403.75
2022-12-18T12:50:24.688Z,101407.34
2022-12-18T12:52:31.680Z,101395.28
2022-12-18T12:54:35.723Z,101388.81
2022-12-18T12:56:45.692Z,101388.72
2022-12-18T12:58:52.202Z,101388.28
2022-12-18T13:01:01.111Z,101380.75
2022-12-18T13:03:05.121Z,101383.44
2022-12-18T13:05:13.320Z,101374.84
2022-12-18T13:07:22.390Z,101365.47
2022-12-18T13:09:25.044Z,101358.50
2022-12-18T13:11:34.856Z,101363.25
2022-12-18T13:13:51.762Z,101357.31
2022-12-18T13:16:00.811Z,101346.31
2022-12-18T13:18:12.818Z,101349.56
2022-12-18T13:20:16.647Z,101333.13
2022-12-18T13:22:22.981Z,101324.25
2022-12-18T13:24:30.813Z,101315.22
2022-12-18T13:26:34.157Z,101319.16
2022-12-18T13:28:42.349Z,101326.09
2022-12-18T13:30:48.303Z,101326.56
2022-12-18T13:33:13.843Z,101323.41
2022-12-18T13:35:19.979Z,101314.25
2022-12-18T13:37:30.995Z,101299.88
2022-12-18T13:39:35.514Z,101295.75
2022-12-18T13:41:38.385Z,101291.91
2022-12-18T13:43:45.409Z,101294.97
2022-12-18T13:46:00.960Z,101288.31
2022-12-18T13:48:04.570Z,101286.53
2022-12-18T13:50:21.286Z,101283.34
2022-12-18T13:52:28.773Z,101276.78
2022-12-18T13:54:37.072Z,101266.19
2022-12-18T13:56:45.660Z,101269.94
2022-12-18T13:59:04.149Z,101260.28
2022-12-18T14:01:06.338Z,101253.38
2022-12-18T14:03:22.383Z,101256.97
2022-12-18T14:05:25.345Z,101261.97
2022-12-18T14:07:34.550Z,101256.19
2022-12-18T14:09:47.490Z,101259.31
2022-12-18T14:11:51.586Z,101261.19
2022-12-18T14:13:53.975Z,101262.59
2022-12-18T14:15:57.488Z,101252.13
2022-12-18T14:18:06.332Z,101252.91
2022-12-18T14:20:15.769Z,101250.66
2022-12-18T14:22:22.191Z,101257.13
2022-12-18T14:24:24.206Z,101255.75
2022-12-18T14:26:30.348Z,101238.31
2022-12-18T14:28:32.977Z,101248.91
2022-12-18T14:30:39.917Z,101247.31
2022-12-18T14:32:41.899Z,101238.25
2022-12-18T14:34:47.682Z,101242.13
2022-12-18T14:36:53.376Z,101229.84
2022-12-18T14:38:57.500Z,101222.28
2022-12-18T14:41:02.513Z,101220.09
2022-12-18T14:43:04.548Z,101216.50
2022-12-18T14:45:14.356Z,101213.44
2022-12-18T14:47:17.729Z,101215.00
2022-12-18T14:49:26.084Z,101215.25
2022-12-18T14:51:30.987Z,101217.00
2022-12-18T14:53:38.456Z,101216.44
2022-12-18T14:55:48.029Z,101212.00
2022-12-18T14:57:54.120Z,101215.25
2022-12-18T15:00:06.811Z,101216.28
2022-12-18T15:02:18.098Z,101202.88
2022-12-18T15:04:28.911Z,101205.72
2022-12-18T15:06:34.424Z,101203.63
2022-12-18T15:08:38.344Z,101201.78
2022-12-18T15:10:48.937Z,101194.16
2022-12-18T15:13:07.226Z,101198.69
2022-12-18T15:15:15.652Z,101202.09
2022-12-18T15:17:22.787Z,101188.19
2022-12-18T15:19:35.769Z,101175.31
2022-12-18T15:21:44.766Z,101174.94
2022-12-18T15:23:50.507Z,101180.56
2022-12-18T15:25:58.402Z,101178.94
2022-12-18T15:28:01.195Z,101170.25
2022-12-18T15:30:05.606Z,101164.66
2022-12-18T15:32:20.544Z,101164.50
2022-12-18T15:34:24.542Z,101162.50
2022-12-18T15:36:27.338Z,101158.84
2022-12-18T15:38:29.806Z,101145.41
2022-12-18T15:40:32.310Z,101141.31
2022-12-18T15:42:37.861Z,101124.63
2022-12-18T15:44:40.664Z,101135.84
2022-12-18T15:46:43.251Z,101117.84
2022-12-18T15:48:48.124Z,101124.09
2022-12-18T15:50:54.426Z,101110.69
2022-12-18T15:52:57.645Z,101108.03
2022-12-18T15:55:03.048Z,101111.38
2022-12-18T15:57:08.528Z,101104.94
2022-12-18T15:59:14.375Z,101099.38
2022-12-18T16:01:17.405Z,101102.88
2022-12-18T16:03:19.576Z,101087.94
2022-12-18T16:05:26.018Z,101084.69
2022-12-18T16:07:30.727Z,101090.88
2022-12-18T16:09:33.304Z,101079.00
2022-12-18T16:11:40.009Z,101083.53
2022-12-18T16:13:42.576Z,101084.50
2022-12-18T16:15:45.353Z,101069.25
2022-12-18T16:17:49.405Z,101073.13
2022-12-18T16:19:51.969Z,101069.84
2022-12-18T16:21:57.040Z,101067.28
2022-12-18T16:23:59.623Z,101064.19
2022-12-18T16:26:02.056Z,101061.75
2022-12-18T16:28:04.579Z,101063.13
2022-12-18T16:30:08.315Z,101057.97
2022-12-18T16:32:15.516Z,101055.03
2022-12-18T16:34:24.928Z,101053.47
2022-12-18T16:36:29.595Z,101048.50
2022-12-18T16:38:32.040Z,101042.16
2022-12-18T16:40:54.609Z,101042.47
2022-12-18T16:42:57.099Z,101041.03
2022-12-18T16:44:59.721Z,101043.66
2022-12-18T16:47:03.483Z,101036.22
2022-12-18T16:49:06.620Z,101033.19
2022-12-18T16:51:09.689Z,101033.59
2022-12-18T16:53:14.237Z,101026.69
2022-12-18T16:55:16.882Z,101025.16
2022-12-18T16:57:22.693Z,101027.63
2022-12-18T16:59:28.359Z,101032.00
2022-12-18T17:01:32.919Z,101024.22
2022-12-18T17:03:35.787Z,101028.97
2022-12-18T17:05:38.444Z,101023.16
2022-12-18T17:07:40.954Z,101017.03
2022-12-18T17:09:43.943Z,101012.94
2022-12-18T17:11:46.680Z,101010.59
2022-12-18T17:13:49.439Z,101002.38
2022-12-18T17:15:52.072Z,100998.78
2022-12-18T17:17:54.713Z,101000.88
2022-12-18T17:19:59.295Z,100998.44
2022-12-18T17:22:02.506Z,100996.50
2022-12-18T17:24:06.140Z,100990.59
2022-12-18T17:26:11.059Z,100986.88
2022-12-18T17:28:13.761Z,100985.00
2022-12-18T17:30:16.720Z,100979.25
2022-12-18T17:32:19.459Z,100986.31
2022-12-18T17:34:22.419Z,100971.78
2022-12-18T17:36:28.932Z,100970.06
2022-12-18T17:38:32.250Z,100968.28
2022-12-18T17:40:35.267Z,100972.03
2022-12-18T17:42:38.478Z,100966.91
2022-12-18T17:44:43.120Z,100967.72
2022-12-18T17:46:46.704Z,100967.19
2022-12-18T17:48:50.225Z,100965.56
2022-12-18T17:50:53.117Z,100964.75
2022-12-18T17:52:58.180Z,100966.31
2022-12-18T17:55:01.364Z,100964.19
2022-12-18T17:57:04.640Z,100958.06
2022-12-18T17:59:07.799Z,100966.53
2022-12-18T18:01:10.401Z,100959.06
2022-12-18T18:03:15.749Z,100957.19
2022-12-18T18:05:17.986Z,100965.81
2022-12-18T18:07:19.996Z,100964.31
2022-12-18T18:09:22.246Z,100951.50
2022-12-18T18:11:28.200Z,100951.94
2022-12-18T18:13:38.662Z,100940.13
2022-12-18T18:15:42.925Z,100938.53
2022-12-18T18:17:45.253Z,100942.69
2022-12-18T18:19:49.799Z,100942.69
2022-12-18T18:21:53.900Z,100940.09
2022-12-18T18:24:00.728Z,100922.81
2022-12-18T18:26:05.984Z,100921.13
2022-12-18T18:28:08.422Z,100921.56
2022-12-18T18:30:11.849Z,100913.06
2022-12-18T18:32:13.906Z,100926.72
2022-12-18T18:34:18.164Z,100906.78
2022-12-18T18:36:20.358Z,100903.75
2022-12-18T18:38:22.625Z,100902.13
2022-12-18T18:40:24.684Z,100899.72
2022-12-18T18:42:30.541Z,100902.47
2022-12-18T18:44:32.867Z,100905.75
2022-12-18T18:46:34.902Z,100912.16
2022-12-18T18:48:37.847Z,100909.34
2022-12-18T18:50:44.222Z,100896.50
2022-12-18T18:52:46.311Z,100899.91
2022-12-18T18:55:11.469Z,100904.47
2022-12-18T18:57:20.330Z,100898.63
2022-12-18T18:59:31.248Z,100889.31
2022-12-18T19:01:33.976Z,100883.34
2022-12-18T19:03:38.297Z,100890.63
2022-12-18T19:05:43.076Z,100882.47
2022-12-18T19:07:48.223Z,100880.72
2022-12-18T19:09:52.265Z,100885.63
2022-12-18T19:11:57.265Z,100878.22
2022-12-18T19:14:00.173Z,100864.78
2022-12-18T19:16:06.250Z,100866.63
2022-12-18T19:18:08.460Z,100863.44
2022-12-18T19:20:12.416Z,100852.25
2022-12-18T19:22:14.602Z,100837.94
2022-12-18T19:24:16.673Z,100857.31
2022-12-18T19:26:28.275Z,100844.09
2022-12-18T19:28:31.385Z,100843.00
2022-12-18T19:30:33.411Z,100831.78
2022-12-18T19:32:35.579Z,100827.91
2022-12-18T19:34:39.214Z,100829.81
2022-12-18T19:36:42.322Z,100828.94
2022-12-18T19:38:45.661Z,100827.28
2022-12-18T19:40:48.746Z,100814.53
2022-12-18T19:42:50.805Z,100815.16
2022-12-18T19:44:52.780Z,100809.06
2022-12-18T19:46:54.749Z,100806.06
2022-12-18T19:48:56.708Z,100809.69
2022-12-18T19:50:59.112Z,100797.94
2022-12-18T19:53:01.287Z,100789.84
2022-12-18T19:55:04.248Z,100786.06
2022-12-18T19:57:08.199Z,100778.28
2022-12-18T19:59:10.105Z,100777.50
2022-12-18T20:01:16.394Z,100783.19
2022-12-18T20:03:28.686Z,100776.63
2022-12-18T20:05:33.973Z,100777.28
2022-12-18T20:07:36.220Z,100771.81
2022-12-18T20:09:38.485Z,100770.31
2022-12-18T20:11:42.002Z,100775.34
2022-12-18T20:13:45.005Z,100782.47
2022-12-18T20:15:47.130Z,100773.75
2022-12-18T20:17:49.247Z,100770.66
2022-12-18T20:19:51.285Z,100778.50
2022-12-18T20:21:53.932Z,100771.03
2022-12-18T20:23:56.020Z,100770.88
2022-12-18T20:25:58.090Z,100768.41
2022-12-18T20:28:00.045Z,100755.78
2022-12-18T20:30:02.291Z,100755.06
2022-12-18T20:32:04.964Z,100760.13
2022-12-18T20:34:07.092Z,100751.53
2022-12-18T20:36:15.346Z,100753.28
2022-12-18T20:38:18.586Z,100749.00
2022-12-18T20:40:23.591Z,100745.13
2022-12-18T20:42:25.674Z,100759.50
2022-12-18T20:44:27.613Z,100766.63
2022-12-18T20:46:30.156Z,100767.19
2022-12-18T20:48:32.913Z,100755.31
2022-12-18T20:50:34.949Z,100746.13
2022-12-18T20:52:37.142Z,100738.31
2022-12-18T20:54:39.060Z,100747.19
2022-12-18T20:56:41.122Z,100756.75
2022-12-18T20:58:50.901Z,100741.47
2022-12-18T21:01:07.932Z,100742.31
2022-12-18T21:03:12.533Z,100744.25
2022-12-18T21:05:14.668Z,100733.28
2022-12-18T21:07:16.750Z,100730.81
2022-12-18T21:09:18.794Z,100739.47
2022-12-18T21:11:24.594Z,100721.78
2022-12-18T21:13:26.820Z,100735.56
2022-12-18T21:15:31.590Z,100722.81
2022-12-18T21:17:39.461Z,100722.56
2022-12-18T21:19:46.796Z,100725.22
2022-12-18T21:21:50.933Z,100715.06
2022-12-18T21:23:53.338Z,100715.06
2022-12-18T21:25:56.054Z,100719.56
2022-12-18T21:27:58.437Z,100721.00
2022-12-18T21:30:00.680Z,100709.34
2022-12-18T21:32:03.850Z,100713.84
2022-12-18T21:34:07.676Z,100707.03
2022-12-18T21:36:10.427Z,100706.19
2022-12-18T21:38:12.487Z,100701.94
2022-12-18T21:40:14.630Z,100709.66
2022-12-18T21:42:19.787Z,100709.00
2022-12-18T21:44:22.215Z,100706.16
2022-12-18T21:46:24.247Z,100699.53
2022-12-18T21:48:26.247Z,100703.13
2022-12-18T21:50:28.296Z,100694.72
2022-12-18T21:52:32.091Z,100695.56
2022-12-18T21:54:35.051Z,100688.75
2022-12-18T21:56:43.135Z,100682.03
2022-12-18T21:58:57.289Z,100687.09
2022-12-18T22:00:59.617Z,100680.41
2022-12-18T22:03:17.790Z,100678.81
2022-12-18T22:05:21.003Z,100679.72
2022-12-18T22:07:22.946Z,100682.13
2022-12-18T22:09:25.898Z,100672.09
2022-12-18T22:11:28.128Z,100666.88
2022-12-18T22:13:30.322Z,100666.97
2022-12-18T22:15:32.800Z,100667.03
2022-12-18T22:17:34.830Z,100665.47
2022-12-18T22:19:42.678Z,100669.72
2022-12-18T22:21:47.692Z,100673.91
2022-12-18T22:23:54.404Z,100675.84
2022-12-18T22:25:56.964Z,100668.09
2022-12-18T22:28:02.215Z,100666.41
2022-12-18T22:30:05.545Z,100664.84
2022-12-18T22:32:10.802Z,100658.88
2022-12-18T22:34:14.549Z,100668.38
2022-12-18T22:36:16.573Z,100648.66
2022-12-18T22:38:20.332Z,100658.13
2022-12-18T22:40:27.127Z,100641.00
2022-12-18T22:42:29.153Z,100645.38
2022-12-18T22:44:31.194Z,100648.75
2022-12-18T22:46:36.967Z,100649.78
2022-12-18T22:48:38.925Z,100641.13
2022-12-18T22:50:41.168Z,100647.31
2022-12-18T22:52:43.104Z,100645.50
2022-12-18T22:54:46.484Z,100632.59
2022-12-18T22:56:48.674Z,100630.88
2022-12-18T22:58:52.742Z,100629.25
2022-12-18T23:00:54.782Z,100630.31
2022-12-18T23:03:00.689Z,100631.25
2022-12-18T23:05:03.001Z,100634.00
2022-12-18T23:07:05.758Z,100633.19
2022-12-18T23:09:13.651Z,100635.06
2022-12-18T23:11:16.787Z,100639.94
2022-12-18T23:13:20.361Z,100632.19
2022-12-18T23:15:27.946Z,100626.38
2022-12-18T23:17:30.468Z,100630.59
2022-12-18T23:19:32.532Z,100622.94
2022-12-18T23:21:36.269Z,100619.38
2022-12-18T23:23:39.173Z,100620.81
2022-12-18T23:25:41.105Z,100615.28
2022-12-18T23:27:43.190Z,100617.09
2022-12-18T23:29:45.312Z,100630.69
2022-12-18T23:31:49.378Z,100617.22
2022-12-18T23:33:52.408Z,100615.47
2022-12-18T23:35:59.142Z,100615.59
2022-12-18T23:38:01.190Z,100611.16
2022-12-18T23:40:03.702Z,100606.97
2022-12-18T23:42:05.827Z,100597.53
2022-12-18T23:44:07.729Z,100609.63
2022-12-18T23:46:14.739Z,100594.25